Clarkedale, Arkansas
Current Conditions -  °F | °C
As of 5:53 AM on Thursday 18 Dec 2014 (Local Time) from KAWM Reporting Station
Overcast Overcast  
Wind Chill: 38°   Ceiling: 4800
Heat Index: 38°   Visibility: 8mi
Dew Point: 37°   Wind: 3mph
Humidity: 97%   Direction: 110°ESE
Pressure: 30.22"   Gusts: NA
Location:  35.31°N, 90.24°W
Report Text: KAWM 181153Z AUTO 11003KT 8SM OVC048 03/03 A3022 RMK AO2 RAE20 SLP235 P0001 60011 70012 T00330028 10033 20022 55008
Loading
Personal Weather Stations






























Interactive Weather Map New forecast layout! Learn more

10-Day Weather Forecast

Advertisements
Track Severe Weather on mobile